Derby, Ohio
Current Conditions -  °F | °C
As of 11:15 PM on Monday 22 Dec 2014 (Local Time) from KTZR Reporting Station
Broken Clouds Broken Clouds  
Wind Chill: 40°   Ceiling: 9000
Heat Index: 44°   Visibility: 10mi
Dew Point: 37°   Wind: 7mph
Humidity: 78%   Direction: 100°E
Pressure: 29.79"   Gusts: NA
Location:  39.77°N, 83.21°W
Report Text: KTZR 230415Z AUTO 10006KT 10SM BKN090 BKN120 07/03 A2979 RMK AO2 T00650030
Loading
Personal Weather Stations






























Interactive Weather Map New forecast layout! Learn more

10-Day Weather Forecast

Advertisements
Track Severe Weather on mobile